CheckWX is a tool to help pilots better visualize weather data.  It is not intended as a substitute for an official pre-flight weather briefing.

18:31:20 UTC

KVIS METAR
Visalia Municipal Airport
Visalia, California, USA
Current

35 mins ago

KVIS 251756Z AUTO 17003KT 10SM CLR 29/17 A2998 RMK AO2 SLP156 T02890167 10289 20194 50002
Observed
Aug-25 @ 17:56 UTC
Wind
  • 170° at 3 KTS
Visibility
10 SM
Flight Rules
VFR
Cloud Levels
  • Clear skies
Temperature
29°C / 84°F
Dewpoint
17°C / 63°F
Heat Index
29°C / 85°F
Humidity
48%
Altimeter
29.98" Hg
Pressure
1015.22 hPa
Previous

2 hours ago

KVIS 251656Z AUTO 21005KT 10SM CLR 27/17 A2999 RMK AO2 SLP158 T02720167
Observed
Aug-25 @ 16:56 UTC
Wind
  • 210° at 5 KTS
Visibility
10 SM
Flight Rules
VFR
Cloud Levels
  • Clear skies
Temperature
27°C / 81°F
Dewpoint
17°C / 63°F
Heat Index
28°C / 82°F
Humidity
54%
Altimeter
29.99" Hg
Pressure
1015.62 hPa
Previous

3 hours ago

KVIS 251556Z AUTO VRB04KT 10SM CLR 24/16 A2999 RMK AO2 SLP156 T02440156
Observed
Aug-25 @ 15:56 UTC
Wind
  • Variable at 4 KTS
Visibility
10 SM
Flight Rules
VFR
Cloud Levels
  • Clear skies
Temperature
24°C / 75°F
Dewpoint
16°C / 61°F
Humidity
61%
Altimeter
29.99" Hg
Pressure
1015.62 hPa